Terminal Aerodrome Forecast
Issued by NWS

Home | Current Version | Previous Version | Text Only | Print | Product List | Glossary On
Versions: 1 2 3 4 5 6 7 8 9 10 11 12 13 14 15 16 17 18 19 20 21 22 23 24 25 26 27 28 29 30 31 32 33 34 35
000
FTUS45 KGJT 271728
TAFTEX
TAF
KTEX 271728Z 2718/2818 13005KT P6SM BKN070 OVC100
     FM272000 19012G23KT P6SM VCSH BKN045
     FM272300 19011G21KT P6SM -SHRA OVC040
     FM280200 19009KT 4SM -SHSNRA OVC030
     FM280400 21008KT 1 1/2SM -SHSN OVC015
     FM280800 21005KT 4SM -SHSN OVC035
     FM281400 VRB03KT 3SM -SHSN OVC015
     FM281600 33007KT 2SM -SHSN BKN015=

USA.gov is the U.S. government's official web portal to all federal, state and local government web resources and services.